createdAt,value
2022-09-24T00:00:10.012Z,11.80
2022-09-24T00:03:56.778Z,11.60
2022-09-24T00:07:38.462Z,11.60
2022-09-24T00:11:20.957Z,11.50
2022-09-24T00:15:03.487Z,11.40
2022-09-24T00:18:45.575Z,11.40
2022-09-24T00:22:27.279Z,11.30
2022-09-24T00:26:30.909Z,11.30
2022-09-24T00:30:12.928Z,11.20
2022-09-24T00:33:55.173Z,11.20
2022-09-24T00:37:36.875Z,11.20
2022-09-24T00:41:21.131Z,11.10
2022-09-24T00:45:05.218Z,11.00
2022-09-24T00:48:48.618Z,10.90
2022-09-24T00:52:30.371Z,10.90
2022-09-24T00:56:17.857Z,10.80
2022-09-24T00:59:59.786Z,10.70
2022-09-24T01:03:42.594Z,10.60
2022-09-24T01:07:25.459Z,10.60
2022-09-24T01:11:44.824Z,10.50
2022-09-24T01:15:33.600Z,10.40
2022-09-24T01:19:15.349Z,10.40
2022-09-24T01:23:47.811Z,10.40
2022-09-24T01:27:52.457Z,10.40
2022-09-24T01:31:35.824Z,10.30
2022-09-24T01:35:29.467Z,10.20
2022-09-24T01:39:14.504Z,10.20
2022-09-24T01:42:59.503Z,10.20
2022-09-24T01:46:41.995Z,10.20
2022-09-24T01:50:25.114Z,10.20
2022-09-24T01:54:26.254Z,10.20
2022-09-24T01:58:14.324Z,10.20
2022-09-24T02:02:07.311Z,10.20
2022-09-24T02:05:58.522Z,10.30
2022-09-24T02:09:43.050Z,10.20
2022-09-24T02:13:27.982Z,10.20
2022-09-24T02:17:10.786Z,10.10
2022-09-24T02:20:53.766Z,10.10
2022-09-24T02:24:50.307Z,10.00
2022-09-24T02:28:34.075Z,9.90
2022-09-24T02:32:19.174Z,10.00
2022-09-24T02:36:01.489Z,10.00
2022-09-24T02:39:43.577Z,9.90
2022-09-24T02:43:25.984Z,9.90
2022-09-24T02:47:07.911Z,9.80
2022-09-24T02:50:49.627Z,9.80
2022-09-24T02:54:31.675Z,9.90
2022-09-24T02:58:13.395Z,9.90
2022-09-24T03:01:55.274Z,9.90
2022-09-24T03:05:37.083Z,9.90
2022-09-24T03:09:18.814Z,9.80
2022-09-24T03:13:00.578Z,9.80
2022-09-24T03:16:42.425Z,9.80
2022-09-24T03:20:26.902Z,9.70
2022-09-24T03:24:08.619Z,9.60
2022-09-24T03:27:50.349Z,9.60
2022-09-24T03:31:32.136Z,9.50
2022-09-24T03:35:15.638Z,9.40
2022-09-24T03:38:57.946Z,9.40
2022-09-24T03:42:39.818Z,9.30
2022-09-24T03:46:24.324Z,9.30
2022-09-24T03:50:06.557Z,9.20
2022-09-24T03:53:48.604Z,9.10
2022-09-24T03:57:30.379Z,9.10
2022-09-24T04:01:13.123Z,9.00
2022-09-24T04:04:54.938Z,9.00
2022-09-24T04:08:36.654Z,8.90
2022-09-24T04:12:18.348Z,9.00
2022-09-24T04:16:04.671Z,9.00
2022-09-24T04:19:46.434Z,9.00
2022-09-24T04:23:28.378Z,9.10
2022-09-24T04:27:10.102Z,9.10
2022-09-24T04:30:51.872Z,9.10
2022-09-24T04:34:33.590Z,9.20
2022-09-24T04:38:15.314Z,9.20
2022-09-24T04:41:57.075Z,9.30
2022-09-24T04:45:38.943Z,9.30
2022-09-24T04:49:20.645Z,9.30
2022-09-24T04:53:02.501Z,9.30
2022-09-24T04:56:44.231Z,9.30
2022-09-24T05:00:26.306Z,9.30
2022-09-24T05:04:08.613Z,9.30
2022-09-24T05:07:53.233Z,9.30
2022-09-24T05:11:39.937Z,9.20
2022-09-24T05:15:24.594Z,9.20
2022-09-24T05:19:09.489Z,9.20
2022-09-24T05:22:51.362Z,9.20
2022-09-24T05:26:51.826Z,9.10
2022-09-24T05:30:33.506Z,9.10
2022-09-24T05:34:15.589Z,9.10
2022-09-24T05:37:57.287Z,9.20
2022-09-24T05:41:39.677Z,9.30
2022-09-24T05:45:21.364Z,9.30
2022-09-24T05:49:03.181Z,9.40
2022-09-24T05:52:44.924Z,9.40
2022-09-24T05:56:26.649Z,9.40
2022-09-24T06:00:08.914Z,9.30
2022-09-24T06:03:50.850Z,9.30
2022-09-24T06:07:32.591Z,9.10
2022-09-24T06:11:14.369Z,9.10
2022-09-24T06:14:56.112Z,9.10
2022-09-24T06:18:40.112Z,9.10
2022-09-24T06:22:26.280Z,9.00
2022-09-24T06:26:11.913Z,9.00
2022-09-24T06:29:53.616Z,8.90
2022-09-24T06:33:35.693Z,8.90
2022-09-24T06:37:17.749Z,8.90
2022-09-24T06:41:01.234Z,9.00
2022-09-24T06:44:42.970Z,9.00
2022-09-24T06:48:26.439Z,9.00
2022-09-24T06:52:08.239Z,9.10
2022-09-24T06:55:50.062Z,9.10
2022-09-24T06:59:31.766Z,9.20
2022-09-24T07:03:15.955Z,9.20
2022-09-24T07:07:16.438Z,9.20
2022-09-24T07:10:58.984Z,9.20
2022-09-24T07:14:40.698Z,9.30
2022-09-24T07:18:23.070Z,9.40
2022-09-24T07:22:05.416Z,9.50
2022-09-24T07:25:55.265Z,9.50
2022-09-24T07:29:36.993Z,9.60
2022-09-24T07:33:18.706Z,9.70
2022-09-24T07:37:01.059Z,9.80
2022-09-24T07:40:44.870Z,10.00
2022-09-24T07:44:26.778Z,10.10
2022-09-24T07:48:10.664Z,10.20
2022-09-24T07:51:54.094Z,10.40
2022-09-24T07:55:40.811Z,10.50
2022-09-24T07:59:22.988Z,10.70
2022-09-24T08:03:05.567Z,10.80
2022-09-24T08:06:48.196Z,11.00
2022-09-24T08:10:29.971Z,11.20
2022-09-24T08:14:11.760Z,11.40
2022-09-24T08:17:53.628Z,11.50
2022-09-24T08:21:39.085Z,11.70
2022-09-24T08:25:21.153Z,11.90
2022-09-24T08:29:02.899Z,12.40
2022-09-24T08:32:51.005Z,13.00
2022-09-24T08:36:32.707Z,13.90
2022-09-24T08:40:20.970Z,14.70
2022-09-24T08:44:56.264Z,15.50
2022-09-24T08:48:42.642Z,16.40
2022-09-24T08:52:42.846Z,17.60
2022-09-24T08:56:29.549Z,18.50
2022-09-24T09:00:15.218Z,19.20
2022-09-24T09:04:07.540Z,20.00
2022-09-24T09:08:48.916Z,20.70
2022-09-24T09:12:54.625Z,21.50
2022-09-24T09:16:44.226Z,22.40
2022-09-24T09:20:31.887Z,23.20
2022-09-24T09:24:24.926Z,24.00
2022-09-24T09:28:19.168Z,24.80
2022-09-24T09:32:13.493Z,25.50
2022-09-24T09:36:27.479Z,26.20
2022-09-24T09:40:37.869Z,26.80
2022-09-24T09:44:35.392Z,27.30
2022-09-24T09:48:20.076Z,27.90
2022-09-24T09:52:12.525Z,28.10
2022-09-24T09:56:00.145Z,28.00
2022-09-24T09:59:47.024Z,28.10
2022-09-24T10:03:30.892Z,28.50
2022-09-24T10:07:17.523Z,29.10
2022-09-24T10:11:01.048Z,29.60
2022-09-24T10:14:43.566Z,29.80
2022-09-24T10:18:28.390Z,30.20
2022-09-24T10:22:18.938Z,30.80
2022-09-24T10:26:02.159Z,31.40
2022-09-24T10:30:03.347Z,32.00
2022-09-24T10:33:48.074Z,32.60
2022-09-24T10:37:30.250Z,33.00
2022-09-24T10:41:31.679Z,33.40
2022-09-24T10:45:15.807Z,33.90
2022-09-24T10:49:06.114Z,34.40
2022-09-24T10:52:51.965Z,34.90
2022-09-24T10:56:43.631Z,35.10
2022-09-24T11:00:41.153Z,35.10
2022-09-24T11:04:38.722Z,35.00
2022-09-24T11:08:28.793Z,35.40
2022-09-24T11:16:12.654Z,36.20
2022-09-24T11:20:17.156Z,36.10
2022-09-24T11:24:08.584Z,36.20
2022-09-24T11:27:56.111Z,36.40
2022-09-24T11:32:06.822Z,36.50
2022-09-24T11:35:55.281Z,36.60
2022-09-24T11:40:23.462Z,36.70
2022-09-24T11:44:25.634Z,36.70
2022-09-24T11:48:23.231Z,36.90
2022-09-24T11:52:32.666Z,37.10
2022-09-24T11:56:30.051Z,37.40
2022-09-24T12:00:20.231Z,37.80
2022-09-24T12:04:16.844Z,38.40
2022-09-24T12:08:03.175Z,38.90
2022-09-24T12:11:54.466Z,39.20
2022-09-24T12:15:56.550Z,39.40
2022-09-24T12:19:57.415Z,39.60
2022-09-24T12:23:44.300Z,39.80
2022-09-24T12:27:33.557Z,40.00
2022-09-24T12:32:05.683Z,40.20
2022-09-24T12:35:59.347Z,40.80
2022-09-24T12:39:59.882Z,41.40
2022-09-24T12:44:11.565Z,41.80
2022-09-24T12:47:59.931Z,41.70
2022-09-24T12:51:42.237Z,41.20
2022-09-24T12:55:27.064Z,40.50
2022-09-24T12:59:27.236Z,39.40
2022-09-24T13:03:46.066Z,38.70
2022-09-24T13:07:37.783Z,38.00
2022-09-24T13:11:27.144Z,37.10
2022-09-24T13:15:28.429Z,36.10
2022-09-24T13:19:25.546Z,35.30
2022-09-24T13:23:19.870Z,35.20
2022-09-24T13:27:21.822Z,35.90
2022-09-24T13:31:23.312Z,37.10
2022-09-24T13:35:11.004Z,37.30
2022-09-24T13:39:03.020Z,36.10
2022-09-24T13:43:07.641Z,34.50
2022-09-24T13:46:56.895Z,32.80
2022-09-24T13:50:45.351Z,31.40
2022-09-24T13:54:36.740Z,30.20
2022-09-24T13:58:32.698Z,29.60
2022-09-24T14:02:28.359Z,30.90
2022-09-24T14:06:12.563Z,32.70
2022-09-24T14:10:06.810Z,34.30
2022-09-24T14:13:48.541Z,35.90
2022-09-24T14:17:30.286Z,37.10
2022-09-24T14:21:27.695Z,38.10
2022-09-24T14:25:09.461Z,39.10
2022-09-24T14:28:51.744Z,39.20
2022-09-24T14:32:36.946Z,38.80
2022-09-24T14:36:20.524Z,38.10
2022-09-24T14:40:07.781Z,36.60
2022-09-24T14:44:02.178Z,35.00
2022-09-24T14:47:44.046Z,33.50
2022-09-24T14:51:31.402Z,32.30
2022-09-24T14:55:19.371Z,31.30
2022-09-24T14:59:01.785Z,30.20
2022-09-24T15:02:43.575Z,29.40
2022-09-24T15:06:32.103Z,28.70
2022-09-24T15:10:22.898Z,28.00
2022-09-24T15:14:20.108Z,27.30
2022-09-24T15:18:01.867Z,26.60
2022-09-24T15:21:45.379Z,26.80
2022-09-24T15:25:27.540Z,28.30
2022-09-24T15:29:23.951Z,30.30
2022-09-24T15:33:12.539Z,31.20
2022-09-24T15:36:59.094Z,31.30
2022-09-24T15:40:42.240Z,30.60
2022-09-24T15:44:29.681Z,29.90
2022-09-24T15:48:13.440Z,30.00
2022-09-24T15:52:03.235Z,30.70
2022-09-24T15:55:48.491Z,31.40
2022-09-24T15:59:30.453Z,32.10
2022-09-24T16:03:22.412Z,32.50
2022-09-24T16:07:04.445Z,32.70
2022-09-24T16:10:47.105Z,32.70
2022-09-24T16:14:28.804Z,32.70
2022-09-24T16:18:14.945Z,32.50
2022-09-24T16:21:56.738Z,32.30
2022-09-24T16:25:38.487Z,32.10
2022-09-24T16:29:20.373Z,32.10
2022-09-24T16:33:02.093Z,32.10
2022-09-24T16:36:43.845Z,32.10
2022-09-24T16:40:25.668Z,32.10
2022-09-24T16:44:07.486Z,32.00
2022-09-24T16:47:49.235Z,31.40
2022-09-24T16:51:30.943Z,30.80
2022-09-24T16:55:12.717Z,29.80
2022-09-24T16:58:54.511Z,28.70
2022-09-24T17:02:36.792Z,27.60
2022-09-24T17:06:20.897Z,26.50
2022-09-24T17:10:16.079Z,25.50
2022-09-24T17:13:58.262Z,24.60
2022-09-24T17:17:45.625Z,23.80
2022-09-24T17:21:27.620Z,23.10
2022-09-24T17:25:09.553Z,22.40
2022-09-24T17:28:53.528Z,21.90
2022-09-24T17:32:35.305Z,21.40
2022-09-24T17:36:17.139Z,21.00
2022-09-24T17:39:58.879Z,20.70
2022-09-24T17:43:41.916Z,20.30
2022-09-24T17:47:23.877Z,20.10
2022-09-24T17:51:22.775Z,19.80
2022-09-24T17:55:08.302Z,19.60
2022-09-24T17:58:52.080Z,19.40
2022-09-24T18:02:33.892Z,19.20
2022-09-24T18:06:15.613Z,19.00
2022-09-24T18:09:57.449Z,18.90
2022-09-24T18:13:39.335Z,18.70
2022-09-24T18:17:21.098Z,18.60
2022-09-24T18:21:05.133Z,18.40
2022-09-24T18:24:47.757Z,18.30
2022-09-24T18:28:29.450Z,18.10
2022-09-24T18:32:11.503Z,18.00
2022-09-24T18:35:53.211Z,17.80
2022-09-24T18:39:34.952Z,17.70
2022-09-24T18:43:16.620Z,17.50
2022-09-24T18:46:58.326Z,17.40
2022-09-24T18:50:46.530Z,17.30
2022-09-24T18:54:28.309Z,17.20
2022-09-24T18:58:13.321Z,17.10
2022-09-24T19:01:55.192Z,17.00
2022-09-24T19:05:36.946Z,17.00
2022-09-24T19:09:20.272Z,16.90
2022-09-24T19:13:02.530Z,16.90
2022-09-24T19:16:45.642Z,16.80
2022-09-24T19:20:27.369Z,16.70
2022-09-24T19:24:09.908Z,16.70
2022-09-24T19:27:51.696Z,16.60
2022-09-24T19:31:36.507Z,16.50
2022-09-24T19:35:18.575Z,16.40
2022-09-24T19:39:01.485Z,16.30
2022-09-24T19:42:44.117Z,16.10
2022-09-24T19:46:27.814Z,15.90
2022-09-24T19:50:12.627Z,15.80
2022-09-24T19:54:01.052Z,15.60
2022-09-24T19:57:42.754Z,15.40
2022-09-24T20:01:28.226Z,15.30
2022-09-24T20:05:10.118Z,15.10
2022-09-24T20:08:52.061Z,15.00
2022-09-24T20:12:34.797Z,14.80
2022-09-24T20:16:22.567Z,14.70
2022-09-24T20:20:04.903Z,14.70
2022-09-24T20:23:48.261Z,14.60
2022-09-24T20:27:48.752Z,14.60
2022-09-24T20:31:30.601Z,14.40
2022-09-24T20:35:12.748Z,14.40
2022-09-24T20:38:58.942Z,14.30
2022-09-24T20:42:40.655Z,14.10
2022-09-24T20:46:25.495Z,14.10
2022-09-24T20:50:07.838Z,14.00
2022-09-24T20:53:50.087Z,13.80
2022-09-24T20:57:32.397Z,13.70
2022-09-24T21:01:14.178Z,13.70
2022-09-24T21:04:55.992Z,13.60
2022-09-24T21:08:47.055Z,13.50
2022-09-24T21:12:29.261Z,13.40
2022-09-24T21:16:12.347Z,13.30
2022-09-24T21:19:54.256Z,13.20
2022-09-24T21:23:37.992Z,13.10
2022-09-24T21:27:19.721Z,13.10
2022-09-24T21:31:03.547Z,13.00
2022-09-24T21:34:45.554Z,12.80
2022-09-24T21:38:27.472Z,12.70
2022-09-24T21:42:09.294Z,12.60
2022-09-24T21:46:13.813Z,12.50
2022-09-24T21:49:56.551Z,12.40
2022-09-24T21:53:38.250Z,12.30
2022-09-24T21:57:20.004Z,12.20
2022-09-24T22:01:04.972Z,12.10
2022-09-24T22:04:47.425Z,12.00
2022-09-24T22:08:31.616Z,11.90
2022-09-24T22:12:13.613Z,12.00
2022-09-24T22:15:56.630Z,12.00
2022-09-24T22:19:38.386Z,12.00
2022-09-24T22:23:21.133Z,12.00
2022-09-24T22:27:02.930Z,11.90
2022-09-24T22:30:45.356Z,11.90
2022-09-24T22:34:45.679Z,11.80
2022-09-24T22:38:27.730Z,11.70
2022-09-24T22:42:11.770Z,11.60
2022-09-24T22:46:00.789Z,11.50
2022-09-24T22:49:42.530Z,11.50
2022-09-24T22:53:24.633Z,11.40
2022-09-24T22:57:06.429Z,11.30
2022-09-24T23:00:48.163Z,11.30
2022-09-24T23:04:30.094Z,11.20
2022-09-24T23:08:11.797Z,11.20
2022-09-24T23:11:53.591Z,11.20
2022-09-24T23:15:35.410Z,11.20
2022-09-24T23:19:19.361Z,11.20
2022-09-24T23:23:01.046Z,11.20
2022-09-24T23:26:43.634Z,11.10
2022-09-24T23:30:26.176Z,11.10
2022-09-24T23:34:08.192Z,11.00
2022-09-24T23:37:49.963Z,11.00
2022-09-24T23:41:32.009Z,10.90
2022-09-24T23:45:13.956Z,10.90
2022-09-24T23:48:56.467Z,10.80
2022-09-24T23:52:38.186Z,10.80
2022-09-24T23:56:20.535Z,10.70
